createdAt,value
2022-08-07T00:00:47.443Z,84.44
2022-08-07T00:11:06.478Z,84.93
2022-08-07T00:21:56.126Z,85.84
2022-08-07T00:31:38.456Z,86.65
2022-08-07T00:42:02.497Z,86.98
2022-08-07T00:52:11.943Z,87.47
2022-08-07T01:02:32.116Z,87.78
2022-08-07T01:23:12.195Z,88.75
2022-08-07T01:33:20.030Z,88.98
2022-08-07T01:43:38.581Z,89.54
2022-08-07T01:54:12.119Z,90.02
2022-08-07T02:04:26.590Z,90.66
2022-08-07T02:14:50.031Z,90.80
2022-08-07T02:25:07.124Z,91.37
2022-08-07T02:36:28.806Z,90.94
2022-08-07T02:56:36.343Z,91.07
2022-08-07T03:06:51.483Z,91.73
2022-08-07T03:16:59.514Z,92.39
2022-08-07T03:27:05.217Z,92.44
2022-08-07T03:37:20.111Z,92.28
2022-08-07T03:47:47.597Z,92.81
2022-08-07T03:58:08.729Z,92.63
2022-08-07T04:08:25.858Z,93.01
2022-08-07T04:18:56.363Z,94.35
2022-08-07T04:28:54.780Z,94.98
2022-08-07T04:39:09.644Z,95.54
2022-08-07T04:49:57.516Z,95.97
2022-08-07T05:00:47.124Z,95.69
2022-08-07T05:11:19.445Z,94.27
2022-08-07T05:21:58.935Z,92.13
2022-08-07T05:32:00.105Z,91.34
2022-08-07T05:42:15.142Z,90.16
2022-08-07T05:52:42.798Z,86.21
2022-08-07T06:02:54.696Z,81.12
2022-08-07T06:13:06.952Z,79.57
2022-08-07T06:24:46.309Z,78.05
2022-08-07T06:34:30.599Z,77.09
2022-08-07T06:45:44.658Z,72.28
2022-08-07T06:55:53.418Z,70.26
2022-08-07T07:16:49.982Z,67.83
2022-08-07T07:26:59.387Z,66.32
2022-08-07T07:47:51.779Z,61.98
2022-08-07T07:58:02.140Z,61.43
2022-08-07T08:08:05.874Z,59.00
2022-08-07T08:18:32.438Z,58.94
2022-08-07T08:28:44.924Z,57.61
2022-08-07T08:39:05.177Z,56.08
2022-08-07T08:50:02.747Z,55.24
2022-08-07T09:00:12.440Z,55.49
2022-08-07T09:10:25.072Z,56.22
2022-08-07T09:20:57.975Z,53.50
2022-08-07T09:31:57.482Z,52.54
2022-08-07T09:42:30.323Z,51.99
2022-08-07T10:04:05.294Z,50.72
2022-08-07T10:14:36.564Z,49.65
2022-08-07T10:25:03.410Z,49.88
2022-08-07T10:35:55.613Z,50.96
2022-08-07T10:46:23.172Z,50.03
2022-08-07T10:56:58.910Z,49.66
2022-08-07T11:07:58.784Z,49.40
2022-08-07T11:18:04.382Z,49.24
2022-08-07T11:28:32.094Z,47.44
2022-08-07T11:39:24.189Z,47.19
2022-08-07T11:50:30.677Z,45.78
2022-08-07T12:01:12.799Z,45.73
2022-08-07T12:12:46.676Z,46.07
2022-08-07T12:23:09.053Z,44.82
2022-08-07T12:34:01.043Z,44.82
2022-08-07T12:44:10.397Z,44.22
2022-08-07T12:54:41.321Z,43.34
2022-08-07T13:05:01.796Z,44.35
2022-08-07T13:15:31.624Z,42.04
2022-08-07T13:25:54.195Z,42.67
2022-08-07T13:36:17.680Z,44.05
2022-08-07T13:46:49.202Z,42.39
2022-08-07T13:57:23.874Z,44.22
2022-08-07T14:07:34.087Z,44.35
2022-08-07T14:18:28.611Z,44.53
2022-08-07T14:28:57.290Z,43.38
2022-08-07T14:39:12.561Z,43.88
2022-08-07T14:50:54.182Z,44.29
2022-08-07T15:01:00.330Z,43.42
2022-08-07T15:11:54.409Z,43.76
2022-08-07T15:22:29.228Z,42.75
2022-08-07T15:43:53.742Z,43.38
2022-08-07T15:54:02.385Z,44.18
2022-08-07T16:04:15.784Z,44.74
2022-08-07T16:14:28.591Z,44.23
2022-08-07T16:24:52.299Z,44.31
2022-08-07T16:35:51.661Z,44.67
2022-08-07T16:47:07.832Z,46.15
2022-08-07T16:57:15.328Z,46.11
2022-08-07T17:07:55.445Z,46.00
2022-08-07T17:18:14.151Z,47.33
2022-08-07T17:28:31.511Z,49.48
2022-08-07T17:39:15.329Z,51.32
2022-08-07T17:49:26.096Z,51.90
2022-08-07T18:12:17.774Z,57.15
2022-08-07T18:34:40.728Z,59.75
2022-08-07T18:45:44.319Z,60.24
2022-08-07T18:55:56.066Z,61.57
2022-08-07T19:17:54.526Z,64.90
2022-08-07T19:30:53.557Z,64.78
2022-08-07T19:39:09.667Z,64.74
2022-08-07T19:49:57.935Z,66.65
2022-08-07T20:10:54.966Z,70.81
2022-08-07T20:21:14.503Z,72.30
2022-08-07T20:31:26.158Z,73.49
2022-08-07T20:41:34.000Z,73.98
2022-08-07T21:04:18.744Z,75.45
2022-08-07T21:15:18.715Z,75.39
2022-08-07T21:26:12.288Z,76.39
2022-08-07T21:36:35.008Z,77.12
2022-08-07T21:47:12.109Z,77.32
2022-08-07T21:57:51.731Z,78.12
2022-08-07T22:07:59.643Z,78.92
2022-08-07T22:18:20.540Z,78.67
2022-08-07T22:28:34.026Z,79.64
2022-08-07T22:38:52.539Z,79.82
2022-08-07T22:49:37.839Z,80.97
2022-08-07T22:59:58.618Z,81.33
2022-08-07T23:10:38.128Z,81.78
2022-08-07T23:21:07.845Z,82.46
2022-08-07T23:32:50.264Z,83.29
2022-08-07T23:42:36.765Z,84.01
2022-08-07T23:53:22.877Z,84.49
